Time;durP1;ratioP1;P1;durP2;ratioP2;P2;SDS_P1;SDS_P2;PMS_P1;PMS_P2;Temp;Humidity;BMP_temperature;BMP_pressure;BME280_temperature;BME280_humidity;BME280_pressure;Samples;Min_cycle;Max_cycle;Signal;HPM_P1;HPM_P2
2022/06/02 00:00:57;;;;;;;9.87;3.63;;;;;;;23.05;63.29;98983.97;5053591;28;20168;-88
2022/06/02 00:03:36;;;;;;;9.30;3.97;;;;;;;22.98;63.61;98982.91;5053889;28;20249;-88
2022/06/02 00:06:19;;;;;;;10.87;4.30;;;;;;;22.88;64.41;98984.06;5053576;28;20161;-88
2022/06/02 00:09:03;;;;;;;21.00;9.53;;;;;;;22.87;64.24;98980.56;5053778;28;20192;-87
2022/06/02 00:11:47;;;;;;;11.83;4.80;;;;;;;22.91;64.11;98981.06;5052282;28;20182;-87
2022/06/02 00:14:33;;;;;;;9.77;3.90;;;;;;;22.88;63.39;98978.72;5052244;28;20599;-88
2022/06/02 00:17:07;;;;;;;5.87;3.00;;;;;;;22.81;63.78;98973.19;5052195;28;20542;-88
2022/06/02 00:19:45;;;;;;;9.07;4.10;;;;;;;22.78;64.35;98986.03;5053113;28;20512;-88
2022/06/02 00:22:24;;;;;;;12.07;3.73;;;;;;;22.63;64.85;98983.97;5053097;28;20231;-87
2022/06/02 00:25:01;;;;;;;8.07;3.67;;;;;;;22.46;65.42;98986.69;5053313;28;20172;-87
2022/06/02 00:27:52;;;;;;;5.33;3.07;;;;;;;22.38;66.25;98986.66;5053324;28;20192;-88
2022/06/02 00:30:44;;;;;;;8.20;3.77;;;;;;;22.47;65.96;98985.69;5053246;28;20189;-88
2022/06/02 00:33:58;;;;;;;6.50;3.67;;;;;;;22.57;65.43;98984.59;5053547;28;20158;-88
2022/06/02 00:37:05;;;;;;;10.40;3.30;;;;;;;22.63;64.29;98978.63;5031958;28;20189;-88
2022/06/02 00:39:33;;;;;;;9.07;2.97;;;;;;;22.52;65.58;98984.22;5052170;28;20655;-88
2022/06/02 00:42:11;;;;;;;6.87;3.27;;;;;;;22.48;65.84;98984.72;5052857;28;20200;-88
2022/06/02 00:44:50;;;;;;;6.40;3.37;;;;;;;22.39;65.87;98980.31;5052862;28;20619;-88
2022/06/02 00:47:57;;;;;;;5.13;2.73;;;;;;;22.34;65.87;98986.13;5053825;28;20177;-88
2022/06/02 00:50:58;;;;;;;6.00;2.73;;;;;;;22.24;66.74;98979.22;5057057;28;20250;-88
2022/06/02 00:53:26;;;;;;;6.23;3.63;;;;;;;22.14;67.57;98991.84;5056497;28;20193;-87
2022/06/02 00:59:28;;;;;;;5.40;2.77;;;;;;;22.16;67.54;98988.03;5056684;28;20316;-87
2022/06/02 01:01:55;;;;;;;4.67;2.87;;;;;;;22.18;68.45;98985.19;5056896;28;20162;-87
2022/06/02 01:04:21;;;;;;;7.07;2.90;;;;;;;22.00;69.98;98988.75;5056585;28;20690;-87
2022/06/02 01:06:50;;;;;;;6.80;3.37;;;;;;;22.08;70.13;98985.31;5056508;28;20169;-88
2022/06/02 01:09:27;;;;;;;7.60;3.07;;;;;;;22.09;70.16;98984.28;5056682;28;20201;-87
2022/06/02 01:12:23;;;;;;;6.23;3.33;;;;;;;22.19;70.00;98979.72;5056732;28;20162;-87
2022/06/02 01:15:10;;;;;;;6.90;2.80;;;;;;;22.26;69.95;98979.91;5056870;28;20204;-88
2022/06/02 01:18:01;;;;;;;5.80;3.00;;;;;;;22.38;68.75;98976.78;5056874;28;20162;-88
2022/06/02 01:20:46;;;;;;;5.20;3.10;;;;;;;22.41;68.06;98963.13;5056594;28;20162;-87
2022/06/02 01:23:47;;;;;;;6.87;3.63;;;;;;;22.40;68.07;98969.47;5056537;28;20162;-88
2022/06/02 01:26:50;;;;;;;6.33;3.10;;;;;;;22.37;68.00;98967.13;5056498;28;20168;-88
2022/06/02 01:29:34;;;;;;;6.23;3.30;;;;;;;22.26;69.10;98964.72;5056064;28;20185;-88
2022/06/02 01:32:09;;;;;;;5.50;3.57;;;;;;;22.13;69.57;98972.31;5056282;28;20177;-87
2022/06/02 01:34:51;;;;;;;11.77;3.13;;;;;;;22.06;69.89;98965.94;5056248;28;20253;-88
2022/06/02 01:37:32;;;;;;;9.30;3.97;;;;;;;22.03;69.24;98969.75;5056496;28;20522;-87
2022/06/02 01:40:06;;;;;;;5.73;3.03;;;;;;;21.98;69.68;98965.88;5056487;28;20158;-88
2022/06/02 01:42:47;;;;;;;5.07;2.77;;;;;;;22.00;69.09;98963.91;5055907;28;20169;-87
2022/06/02 01:45:23;;;;;;;5.97;3.07;;;;;;;22.03;68.74;98963.59;5056069;28;20643;-88
2022/06/02 01:48:05;;;;;;;5.23;2.87;;;;;;;22.04;68.84;98954.56;5055733;28;20228;-88
2022/06/02 01:50:50;;;;;;;7.70;3.57;;;;;;;21.99;69.33;98962.22;5054711;28;20198;-87
2022/06/02 01:53:26;;;;;;;4.97;3.13;;;;;;;21.91;69.78;98964.81;5056245;28;20189;-87
2022/06/02 01:56:20;;;;;;;7.07;2.93;;;;;;;21.93;69.61;98960.19;5055779;28;20161;-88
2022/06/02 01:59:15;;;;;;;7.17;3.90;;;;;;;21.97;69.51;98958.88;5054610;28;20627;-88
2022/06/02 02:02:10;;;;;;;6.70;2.80;;;;;;;21.93;69.39;98962.84;5056073;28;20595;-88
2022/06/02 02:04:56;;;;;;;14.37;3.90;;;;;;;21.88;69.06;98957.16;5056077;28;20214;-88
2022/06/02 02:07:44;;;;;;;9.03;3.00;;;;;;;21.75;70.18;98967.34;5055750;28;20185;-87
2022/06/02 02:10:49;;;;;;;4.87;2.93;;;;;;;21.66;70.84;98960.28;5055289;28;20208;-87
2022/06/02 02:13:28;;;;;;;3.77;2.60;;;;;;;21.60;71.25;98958.22;5045289;28;20268;-87
2022/06/02 02:16:12;;;;;;;4.47;2.93;;;;;;;21.62;71.54;98958.91;5055526;28;20168;-87
2022/06/02 02:19:01;;;;;;;4.97;2.27;;;;;;;21.61;71.34;98962.56;5055176;28;20158;-88
2022/06/02 02:21:41;;;;;;;10.43;3.30;;;;;;;21.60;71.37;98960.88;5054231;28;20169;-88
2022/06/02 02:24:33;;;;;;;5.57;2.73;;;;;;;21.61;71.42;98962.56;5055692;28;20161;-88
2022/06/02 02:30:35;;;;;;;5.17;2.57;;;;;;;21.59;71.37;98956.56;5054927;28;20204;-87
2022/06/02 02:33:12;;;;;;;6.30;2.67;;;;;;;21.76;70.69;98961.00;5055234;28;20244;-87
2022/06/02 02:36:17;;;;;;;7.07;2.80;;;;;;;21.96;69.82;98965.19;5071218;28;20181;-87
2022/06/02 02:39:05;;;;;;;4.73;2.67;;;;;;;21.98;69.32;98958.72;5053166;28;20174;-88
2022/06/02 02:41:40;;;;;;;6.43;2.00;;;;;;;21.81;68.62;98961.38;5054628;28;20654;-88
2022/06/02 02:44:22;;;;;;;4.50;2.10;;;;;;;21.69;68.56;98951.97;5055260;28;20193;-88
2022/06/02 02:46:47;;;;;;;5.00;1.87;;;;;;;21.55;68.62;98952.50;5054807;28;20595;-88
2022/06/02 02:49:25;;;;;;;6.87;1.90;;;;;;;21.58;68.22;98949.53;5054571;28;20240;-88
2022/06/02 02:52:02;;;;;;;4.87;2.30;;;;;;;21.59;67.68;98956.56;5072442;28;20182;-96
2022/06/02 02:54:28;;;;;;;4.43;2.07;;;;;;;21.61;67.89;98954.56;5055241;28;20184;-95
2022/06/02 02:57:07;;;;;;;4.23;2.23;;;;;;;21.66;67.43;98962.94;5055498;28;20229;-95
2022/06/02 02:59:54;;;;;;;3.97;2.17;;;;;;;21.77;67.34;98958.22;5055027;28;20205;-96
2022/06/02 03:02:44;;;;;;;3.20;1.90;;;;;;;21.90;66.52;98957.81;5054877;28;20173;-96
2022/06/02 03:05:16;;;;;;;4.17;2.10;;;;;;;21.84;66.19;98959.25;5055632;28;20177;-95
2022/06/02 03:07:42;;;;;;;3.73;2.00;;;;;;;21.85;65.88;98965.44;5054601;28;20293;-96
2022/06/02 03:10:22;;;;;;;5.90;2.73;;;;;;;21.92;65.65;98967.34;5054334;28;20186;-96
2022/06/02 03:13:05;;;;;;;8.07;3.47;;;;;;;21.92;65.63;98961.16;5054295;28;20166;-95
2022/06/02 03:15:42;;;;;;;10.20;5.67;;;;;;;22.03;65.00;98968.94;5071420;28;20228;-95
2022/06/02 03:18:40;;;;;;;9.00;3.83;;;;;;;22.12;64.53;98967.16;5072194;28;20279;-96
2022/06/02 03:21:24;;;;;;;24.00;11.00;;;;;;;22.19;63.98;98962.84;5055409;28;20627;-95
2022/06/02 03:24:02;;;;;;;9.30;3.20;;;;;;;22.17;64.35;98967.53;5055482;28;20178;-95
2022/06/02 03:26:39;;;;;;;4.03;2.40;;;;;;;22.13;64.05;98966.97;5056556;28;20202;-96
2022/06/02 03:29:16;;;;;;;5.67;1.97;;;;;;;22.13;64.29;98975.00;5054630;28;20200;-95
2022/06/02 03:32:20;;;;;;;4.03;1.87;;;;;;;22.14;64.08;98974.00;5071999;28;20193;-95
2022/06/02 03:35:13;;;;;;;3.50;1.77;;;;;;;22.14;64.20;98966.00;5064760;28;20283;-95
2022/06/02 03:38:05;;;;;;;2.37;1.30;;;;;;;22.18;63.71;98969.16;5057515;28;20162;-96
2022/06/02 03:41:02;;;;;;;4.07;2.13;;;;;;;22.18;64.25;98975.34;5055415;28;20173;-96
2022/06/02 03:43:54;;;;;;;4.53;2.30;;;;;;;22.22;64.16;98976.69;5054999;28;20169;-96
2022/06/02 03:46:48;;;;;;;2.97;2.00;;;;;;;22.30;64.39;98971.41;5072414;28;20173;-96
2022/06/02 03:49:24;;;;;;;3.67;1.70;;;;;;;22.27;64.44;98966.41;5072178;28;20586;-96
2022/06/02 03:52:13;;;;;;;2.70;1.23;;;;;;;22.33;63.96;98978.25;5073507;28;20165;-95
2022/06/02 03:54:44;;;;;;;3.30;1.83;;;;;;;22.45;64.01;98972.50;5056332;28;20172;-96
2022/06/02 03:57:24;;;;;;;5.00;2.23;;;;;;;22.54;63.43;98963.53;5056835;28;20282;-96
2022/06/02 04:00:14;;;;;;;4.20;2.10;;;;;;;22.60;63.66;98972.75;5055941;28;20606;-96
2022/06/02 04:02:47;;;;;;;5.57;2.10;;;;;;;22.64;63.10;98972.28;5073644;28;20188;-96
2022/06/02 04:05:20;;;;;;;2.80;1.77;;;;;;;22.81;62.86;98981.22;5058749;28;20168;-96
2022/06/02 04:08:06;;;;;;;4.03;1.67;;;;;;;22.85;63.20;98976.38;5058378;28;20182;-96
2022/06/02 04:10:39;;;;;;;2.90;1.53;;;;;;;22.90;62.73;98984.75;5057019;28;20197;-96
2022/06/02 04:16:16;;;;;;;3.40;1.70;;;;;;;22.96;62.53;98976.06;5057279;28;20181;-96
2022/06/02 04:18:51;;;;;;;8.07;2.20;;;;;;;22.80;62.80;98981.38;5060166;28;20239;-96
2022/06/02 04:21:52;;;;;;;3.70;2.03;;;;;;;22.96;62.44;98973.38;5059317;28;20185;-95
2022/06/02 04:24:45;;;;;;;6.60;2.30;;;;;;;23.17;62.26;98976.47;5059588;28;20169;-96
2022/06/02 04:27:23;;;;;;;4.13;2.17;;;;;;;23.35;62.40;98982.50;5057682;28;20193;-96
2022/06/02 04:29:52;;;;;;;3.47;2.20;;;;;;;23.49;61.75;98981.06;5058679;28;20284;-95
2022/06/02 04:32:17;;;;;;;4.30;2.40;;;;;;;23.32;62.36;98984.69;5058410;28;20178;-96
2022/06/02 04:35:12;;;;;;;6.53;2.20;;;;;;;23.48;61.78;98982.88;5058388;28;20177;-96
2022/06/02 04:38:10;;;;;;;9.33;2.07;;;;;;;23.42;61.92;98991.59;5052780;28;20576;-95
2022/06/02 04:41:10;;;;;;;4.70;2.53;;;;;;;23.36;61.79;98991.38;5057815;28;20257;-96
2022/06/02 04:43:47;;;;;;;4.60;2.10;;;;;;;23.36;62.79;98991.38;5076366;28;20182;-96
2022/06/02 04:46:29;;;;;;;4.37;1.93;;;;;;;23.40;62.89;98996.25;5058458;28;20173;-96
2022/06/02 04:49:08;;;;;;;3.50;1.60;;;;;;;23.39;63.18;98997.28;5058922;28;20193;-96
2022/06/02 04:51:53;;;;;;;9.47;2.77;;;;;;;23.45;62.74;99001.97;5055766;28;20193;-96
2022/06/02 04:54:33;;;;;;;2.73;1.50;;;;;;;23.55;62.76;99001.81;5075740;28;20165;-96
2022/06/02 04:57:02;;;;;;;7.37;2.10;;;;;;;23.57;62.73;98997.97;5059692;28;20185;-95
2022/06/02 04:59:49;;;;;;;3.50;1.80;;;;;;;23.50;61.93;99010.34;5055820;28;20180;-95
2022/06/02 05:03:03;;;;;;;4.63;2.23;;;;;;;23.66;61.79;99010.31;5072613;28;20166;-95
2022/06/02 05:05:38;;;;;;;3.17;1.83;;;;;;;23.74;60.83;99006.84;5045735;28;20182;-95
2022/06/02 05:08:14;;;;;;;7.87;2.30;;;;;;;23.98;61.37;99006.81;5055898;28;20197;-96
2022/06/02 05:10:59;;;;;;;4.97;2.03;;;;;;;23.98;60.87;98997.97;5053979;28;20259;-96
2022/06/02 05:14:04;;;;;;;3.63;1.63;;;;;;;24.02;60.55;99004.66;5055258;28;20190;-95
2022/06/02 05:16:38;;;;;;;3.70;1.80;;;;;;;23.98;60.69;99003.31;5054448;28;20161;-95
2022/06/02 05:19:12;;;;;;;4.37;1.80;;;;;;;24.14;60.55;99003.31;5053258;28;20706;-95
2022/06/02 05:22:06;;;;;;;7.20;1.97;;;;;;;24.41;60.20;99002.94;5053989;28;20180;-94
2022/06/02 05:24:54;;;;;;;3.80;1.73;;;;;;;24.50;60.39;99011.81;5054015;28;20158;-95
2022/06/02 05:27:49;;;;;;;3.00;1.70;;;;;;;24.51;60.88;99013.47;5053182;28;20170;-95
2022/06/02 05:30:19;;;;;;;3.63;1.90;;;;;;;24.56;61.29;99008.41;5053295;28;20190;-95
2022/06/02 05:33:03;;;;;;;4.33;2.00;;;;;;;24.76;61.16;98996.31;5053362;28;20170;-95
2022/06/02 05:36:06;;;;;;;3.97;1.80;;;;;;;25.05;61.51;98997.34;5057610;28;20173;-95
2022/06/02 05:38:53;;;;;;;3.70;1.90;;;;;;;25.13;60.86;99001.03;5057687;28;20177;-95
2022/06/02 05:41:45;;;;;;;5.83;2.73;;;;;;;25.21;60.93;98993.75;5074528;28;20170;-96
2022/06/02 05:44:55;;;;;;;4.93;2.10;;;;;;;25.59;61.39;99005.44;5062720;28;20202;-96
2022/06/02 05:47:41;;;;;;;3.37;1.80;;;;;;;25.43;60.74;99002.84;5057830;28;20204;-96
2022/06/02 05:50:29;;;;;;;4.33;1.83;;;;;;;25.44;61.40;99007.19;5058495;28;20292;-96
2022/06/02 05:53:16;;;;;;;3.47;1.80;;;;;;;25.37;60.39;99009.75;5073158;28;20235;-95
2022/06/02 05:55:53;;;;;;;6.43;2.37;;;;;;;25.59;61.42;99002.75;5058618;28;20256;-96
2022/06/02 05:58:46;;;;;;;5.57;2.10;;;;;;;25.76;60.93;99020.41;5061298;28;20192;-95
2022/06/02 06:01:31;;;;;;;3.30;1.67;;;;;;;25.93;60.16;99019.28;5059417;28;20180;-96
2022/06/02 06:04:18;;;;;;;4.07;1.77;;;;;;;26.17;60.03;99008.34;5063026;28;20177;-96
2022/06/02 06:07:22;;;;;;;5.00;2.30;;;;;;;26.24;60.62;99020.03;5059826;28;20181;-96
2022/06/02 06:10:01;;;;;;;4.50;2.13;;;;;;;26.38;59.83;99013.00;5060658;28;20193;-96
2022/06/02 06:12:31;;;;;;;4.67;2.13;;;;;;;26.53;58.11;99021.06;5060086;28;20186;-96
2022/06/02 06:15:34;;;;;;;3.72;1.92;;;;;;;26.70;57.80;99014.50;5060422;28;20574;-95
2022/06/02 06:18:15;;;;;;;7.20;2.00;;;;;;;27.03;58.55;99017.66;5060089;28;20331;-96
2022/06/02 06:21:38;;;;;;;3.53;1.83;;;;;;;27.33;56.27;99022.78;5078182;28;20185;-96
2022/06/02 06:24:25;;;;;;;5.53;2.10;;;;;;;27.56;55.82;99019.13;5023096;28;20557;-95
2022/06/02 06:26:53;;;;;;;3.22;1.83;;;;;;;27.41;55.08;99020.00;5019055;28;20654;-94
2022/06/02 06:29:34;;;;;;;5.85;1.58;;;;;;;27.52;55.08;99018.66;5053511;28;20275;-94
2022/06/02 06:32:00;;;;;;;2.47;1.50;;;;;;;27.63;55.13;99015.47;5058288;28;20178;-95
2022/06/02 06:34:56;;;;;;;4.88;2.13;;;;;;;28.03;53.90;99005.94;5058615;28;20182;-96
2022/06/02 06:37:49;;;;;;;3.22;1.67;;;;;;;28.20;53.23;99015.38;5057272;28;20162;-96
2022/06/02 06:40:49;;;;;;;2.78;1.63;;;;;;;28.46;51.03;99015.56;5058750;28;20166;-95
2022/06/02 06:43:33;;;;;;;4.82;1.45;;;;;;;28.49;49.62;99017.03;5057233;28;20194;-95
2022/06/02 06:46:08;;;;;;;4.57;2.00;;;;;;;28.36;51.26;99019.66;5054953;28;20665;-95
2022/06/02 06:48:43;;;;;;;4.53;1.80;;;;;;;28.60;49.42;99011.94;5074651;28;20526;-96
2022/06/02 06:51:08;;;;;;;3.88;1.88;;;;;;;28.94;51.26;99008.41;5058752;28;20228;-96
2022/06/02 06:53:40;;;;;;;3.58;1.75;;;;;;;29.16;47.89;99009.13;5057215;28;20178;-96
2022/06/02 06:56:11;;;;;;;4.07;1.88;;;;;;;29.29;48.98;99009.22;5058289;28;20178;-95
2022/06/02 06:58:58;;;;;;;3.72;1.50;;;;;;;29.24;48.58;99009.00;5055689;28;20181;-95
2022/06/02 07:01:49;;;;;;;9.52;2.50;;;;;;;29.37;49.21;99003.63;5058200;28;20219;-96
2022/06/02 07:04:32;;;;;;;5.68;1.83;;;;;;;29.66;48.92;99011.38;5050881;28;20185;-96
2022/06/02 07:07:25;;;;;;;3.47;1.17;;;;;;;29.78;47.78;99011.59;5056501;28;20175;-96
2022/06/02 07:10:13;;;;;;;4.00;1.30;;;;;;;30.15;48.44;99011.03;5059889;28;20193;-96
2022/06/02 07:13:05;;;;;;;2.50;1.50;;;;;;;30.38;47.09;99014.16;5080497;28;20223;-96
2022/06/02 07:15:48;;;;;;;5.63;2.17;;;;;;;30.38;45.32;99014.16;5056630;28;20245;-96
2022/06/02 07:18:56;;;;;;;3.22;1.67;;;;;;;30.61;45.39;99019.09;5073734;28;20174;-95
2022/06/02 07:21:40;;;;;;;3.03;1.67;;;;;;;30.74;46.22;99019.06;5059307;28;20177;-95
2022/06/02 07:24:17;;;;;;;4.78;1.85;;;;;;;30.74;44.87;99013.66;5057749;28;20265;-96
2022/06/02 07:27:42;;;;;;;2.40;1.40;;;;;;;30.62;44.62;99015.38;5054823;28;20173;-94
2022/06/02 07:30:33;;;;;;;2.85;1.58;;;;;;;31.05;46.66;99009.44;5060325;28;20232;-96
2022/06/02 07:33:11;;;;;;;5.15;1.77;;;;;;;31.22;45.66;99016.00;5058333;28;20193;-96
2022/06/02 07:35:46;;;;;;;3.97;2.00;;;;;;;31.30;45.02;99013.91;5057160;28;20185;-96
2022/06/02 07:38:32;;;;;;;8.32;1.90;;;;;;;31.47;43.81;99014.28;5057948;28;20183;-94
2022/06/02 07:41:32;;;;;;;4.30;1.70;;;;;;;31.41;42.84;99021.34;5071411;28;20205;-95
2022/06/02 07:44:00;;;;;;;2.80;1.52;;;;;;;31.49;43.31;99023.00;5056373;28;20208;-96
2022/06/02 07:46:53;;;;;;;4.38;1.83;;;;;;;31.53;43.73;99016.94;5057877;28;20177;-96
2022/06/02 07:49:37;;;;;;;5.95;1.83;;;;;;;31.90;43.24;99027.94;5063618;28;20285;-96
2022/06/02 07:52:32;;;;;;;3.25;1.38;;;;;;;31.90;41.83;99028.78;5056583;28;20546;-95
2022/06/02 07:55:22;;;;;;;3.53;1.40;;;;;;;32.05;40.67;99018.47;5060607;28;20692;-96
2022/06/02 07:58:05;;;;;;;5.85;1.55;;;;;;;32.11;42.28;99027.59;5056898;28;20194;-96
2022/06/02 08:00:51;;;;;;;3.90;1.60;;;;;;;32.19;43.21;99022.75;5056406;28;20172;-96
2022/06/02 08:03:33;;;;;;;8.82;2.13;;;;;;;32.21;41.97;99034.19;5071929;28;20701;-95
2022/06/02 08:06:16;;;;;;;6.95;1.55;;;;;;;32.51;41.03;99028.09;5060243;28;20167;-96
2022/06/02 08:09:01;;;;;;;5.20;1.67;;;;;;;32.75;41.56;99024.53;5076266;28;20169;-95
2022/06/02 08:12:06;;;;;;;4.78;2.22;;;;;;;32.86;42.05;99021.06;5060673;28;20185;-96
2022/06/02 08:15:15;;;;;;;4.15;1.90;;;;;;;33.12;40.42;99004.50;5061889;28;20174;-96
2022/06/02 08:18:13;;;;;;;3.17;1.42;;;;;;;33.00;39.67;99008.97;5048175;28;20197;-96
2022/06/02 08:20:53;;;;;;;2.15;1.25;;;;;;;33.44;40.10;99007.81;5059980;28;20185;-96
2022/06/02 08:23:24;;;;;;;2.00;1.20;;;;;;;33.42;39.06;99010.75;5055383;28;20170;-96
2022/06/02 08:26:02;;;;;;;10.18;1.85;;;;;;;33.51;39.11;99008.56;5056275;28;20185;-95
2022/06/02 08:28:42;;;;;;;2.80;1.80;;;;;;;33.22;38.17;99004.78;5054943;28;20177;-96
2022/06/02 08:31:32;;;;;;;3.28;1.48;;;;;;;33.38;38.29;98998.72;5057062;28;20216;-95
2022/06/02 08:34:36;;;;;;;3.35;1.27;;;;;;;33.65;39.22;99003.78;5061104;28;20562;-95
2022/06/02 08:37:14;;;;;;;4.65;1.80;;;;;;;33.83;37.96;98995.56;5053458;28;20180;-96
2022/06/02 08:39:54;;;;;;;4.63;1.60;;;;;;;34.07;39.19;99001.91;5059209;28;20178;-95
2022/06/02 08:42:49;;;;;;;2.65;1.67;;;;;;;34.04;37.47;99008.63;5053588;28;20521;-95
2022/06/02 08:45:52;;;;;;;4.05;1.77;;;;;;;34.22;38.88;99011.28;5058603;28;20260;-96
2022/06/02 08:48:20;;;;;;;2.55;1.38;;;;;;;34.39;37.02;99001.31;5058568;28;20172;-96
2022/06/02 08:51:15;;;;;;;3.30;1.40;;;;;;;34.55;36.05;99005.22;5057392;28;20205;-96
2022/06/02 08:54:06;;;;;;;4.38;1.95;;;;;;;34.50;37.20;99005.09;5071832;28;20184;-96
2022/06/02 08:56:38;;;;;;;2.97;1.20;;;;;;;34.65;39.35;99000.03;5057005;28;20197;-96
2022/06/02 08:59:18;;;;;;;3.55;1.40;;;;;;;34.86;37.61;99004.03;5054573;28;20169;-96
2022/06/02 09:01:56;;;;;;;3.65;1.60;;;;;;;35.03;36.05;98994.03;5057260;28;20188;-96
2022/06/02 09:04:39;;;;;;;3.42;1.27;;;;;;;35.19;37.58;99002.28;5056020;28;20207;-96
2022/06/02 09:07:23;;;;;;;4.28;1.75;;;;;;;35.36;34.85;98994.19;5071552;28;20268;-95
2022/06/02 09:09:55;;;;;;;3.80;1.70;;;;;;;35.25;36.74;98996.97;5056698;28;20209;-95
2022/06/02 09:12:32;;;;;;;4.50;1.30;;;;;;;35.45;34.95;98995.47;5059092;28;20178;-96
2022/06/02 09:15:25;;;;;;;5.30;1.88;;;;;;;35.63;34.49;98994.47;5074931;28;20654;-95
2022/06/02 09:18:18;;;;;;;3.33;1.60;;;;;;;35.87;36.01;98992.41;5058160;28;20323;-96
2022/06/02 09:20:50;;;;;;;4.30;1.52;;;;;;;36.19;35.70;98990.81;5040325;28;20186;-96
2022/06/02 09:23:15;;;;;;;4.07;1.52;;;;;;;36.21;33.85;98988.66;5056395;28;20169;-95
2022/06/02 09:26:12;;;;;;;4.18;2.15;;;;;;;35.90;32.88;98981.84;5057051;28;20173;-95
2022/06/02 09:28:38;;;;;;;3.88;1.30;;;;;;;35.70;35.30;98981.47;5057725;28;20170;-95
2022/06/02 09:31:37;;;;;;;2.55;1.40;;;;;;;35.96;35.77;98975.38;5056957;28;20177;-95
2022/06/02 09:34:21;;;;;;;3.42;1.67;;;;;;;35.94;33.96;98979.44;5056528;28;20201;-95
2022/06/02 09:37:18;;;;;;;7.63;2.00;;;;;;;35.99;35.50;98983.06;5073089;28;20173;-96
2022/06/02 09:40:02;;;;;;;3.03;1.20;;;;;;;36.16;33.13;98980.38;5056953;28;20170;-96
2022/06/02 09:42:58;;;;;;;3.63;1.63;;;;;;;36.23;34.42;98978.31;5072347;28;20174;-95
2022/06/02 09:45:36;;;;;;;2.72;1.50;;;;;;;36.38;34.15;98975.78;5055831;28;20173;-96
2022/06/02 09:48:23;;;;;;;2.80;1.40;;;;;;;36.51;35.43;98974.63;5055958;28;20331;-96
2022/06/02 09:51:12;;;;;;;2.80;1.55;;;;;;;36.52;34.20;98974.41;5055647;28;20660;-94
2022/06/02 09:53:53;;;;;;;3.05;1.58;;;;;;;36.32;35.47;98974.09;5055642;28;20177;-95
2022/06/02 09:56:19;;;;;;;2.72;1.08;;;;;;;36.35;33.65;98968.09;5055193;28;20197;-95
2022/06/02 09:59:03;;;;;;;3.03;1.65;;;;;;;36.20;34.22;98971.44;5055430;28;20188;-93
2022/06/02 10:01:40;;;;;;;2.85;1.25;;;;;;;36.13;34.05;98980.88;5055094;28;20316;-95
2022/06/02 10:04:24;;;;;;;3.70;1.63;;;;;;;36.27;35.59;98979.44;5071879;28;20185;-95
2022/06/02 10:06:51;;;;;;;5.10;1.67;;;;;;;36.23;34.77;98972.84;5055353;28;20166;-96
2022/06/02 10:09:28;;;;;;;4.18;1.27;;;;;;;36.10;32.88;98975.91;5054854;28;20205;-95
2022/06/02 10:15:16;;;;;;;7.85;1.90;;;;;;;36.26;32.59;98964.16;5056230;28;20708;-94
2022/06/02 10:18:00;;;;;;;3.17;1.40;;;;;;;36.35;32.29;98962.63;5071612;28;20172;-94
2022/06/02 10:21:20;;;;;;;4.00;1.95;;;;;;;36.33;33.06;98960.16;5053974;28;20197;-94
2022/06/02 10:24:04;;;;;;;3.40;1.35;;;;;;;36.40;31.14;98954.50;5034578;28;20166;-93
2022/06/02 10:26:52;;;;;;;3.20;1.73;;;;;;;36.24;30.97;98958.13;5017645;28;20216;-96
2022/06/02 10:29:21;;;;;;;3.33;1.55;;;;;;;36.10;33.52;98956.81;5049256;28;20206;-96
2022/06/02 10:32:24;;;;;;;2.88;1.50;;;;;;;36.38;31.70;98956.69;5054744;28;20220;-95
2022/06/02 10:35:24;;;;;;;2.65;1.15;;;;;;;36.61;31.96;98951.03;5055679;28;20166;-95
2022/06/02 10:38:10;;;;;;;4.18;1.25;;;;;;;36.52;32.83;98947.09;5054429;28;20264;-95
2022/06/02 10:41:07;;;;;;;3.35;1.25;;;;;;;36.70;30.91;98949.53;5054424;28;20169;-94
2022/06/02 10:44:04;;;;;;;3.17;1.17;;;;;;;36.85;30.39;98941.50;5071888;28;20258;-94
2022/06/02 10:46:52;;;;;;;2.25;0.88;;;;;;;36.77;31.20;98936.50;5046230;28;20208;-95
2022/06/02 10:49:30;;;;;;;2.75;1.20;;;;;;;36.65;31.03;98938.53;5070770;28;20255;-95
2022/06/02 10:52:33;;;;;;;2.60;1.23;;;;;;;36.73;29.94;98929.06;5070961;28;20173;-94
2022/06/02 10:55:19;;;;;;;5.07;2.28;;;;;;;37.02;31.53;98929.72;5054038;28;20178;-95
2022/06/02 10:58:01;;;;;;;3.30;1.13;;;;;;;37.14;32.37;98927.66;5033429;28;20201;-96
2022/06/02 11:01:04;;;;;;;2.83;1.20;;;;;;;36.89;29.90;98928.16;5054094;28;20170;-93
2022/06/02 11:03:58;;;;;;;2.10;1.27;;;;;;;36.77;30.43;98927.47;5053951;28;20243;-95
2022/06/02 11:06:30;;;;;;;5.60;1.40;;;;;;;36.90;29.79;98916.97;5053776;28;20181;-94
2022/06/02 11:08:58;;;;;;;4.63;1.75;;;;;;;36.91;29.39;98912.34;5054855;28;20197;-94
2022/06/02 11:11:53;;;;;;;2.83;1.15;;;;;;;37.01;29.48;98914.38;5054822;28;20182;-94
2022/06/02 11:14:56;;;;;;;2.60;1.30;;;;;;;37.18;29.61;98901.47;5054141;28;20190;-94
2022/06/02 11:17:38;;;;;;;7.70;1.13;;;;;;;37.29;29.97;98903.22;5054554;28;20165;-95
2022/06/02 11:20:25;;;;;;;3.65;1.58;;;;;;;37.12;29.50;98907.94;5055159;28;20162;-95
2022/06/02 11:23:14;;;;;;;3.53;1.00;;;;;;;36.97;30.77;98907.78;5054664;28;20196;-95
2022/06/02 11:26:01;;;;;;;2.13;1.40;;;;;;;36.93;29.48;98905.53;5053518;28;20173;-95
2022/06/02 11:28:38;;;;;;;2.60;1.25;;;;;;;37.20;28.46;98900.13;5054844;28;20153;-95
2022/06/02 11:31:41;;;;;;;3.75;1.48;;;;;;;37.53;29.38;98904.56;5053440;28;20189;-95
2022/06/02 11:34:29;;;;;;;4.18;1.50;;;;;;;37.44;29.70;98906.97;5054267;28;20212;-95
2022/06/02 11:37:31;;;;;;;3.05;1.60;;;;;;;37.51;30.66;98906.72;5054828;28;20512;-95
2022/06/02 11:40:33;;;;;;;4.03;1.30;;;;;;;37.68;29.30;98903.88;5054065;28;20181;-95
2022/06/02 11:43:26;;;;;;;3.20;1.20;;;;;;;37.61;29.46;98895.88;5053197;28;20182;-95
2022/06/02 11:46:22;;;;;;;2.13;1.10;;;;;;;37.62;29.55;98897.53;5053118;28;20174;-93
2022/06/02 11:49:17;;;;;;;2.25;1.20;;;;;;;37.46;28.39;98893.84;5069769;28;20181;-94
2022/06/02 11:52:09;;;;;;;2.55;1.45;;;;;;;37.54;28.33;98893.38;5054032;28;20180;-95
2022/06/02 11:55:08;;;;;;;2.25;1.13;;;;;;;37.69;28.99;98883.63;5034306;28;20591;-95
2022/06/02 11:57:45;;;;;;;3.90;1.17;;;;;;;37.46;28.85;98882.06;5054053;28;20186;-94
2022/06/02 12:07:23;;;;;;;1.73;0.90;;;;;;;37.60;27.46;98872.34;5054963;28;20227;-94
2022/06/02 12:09:51;;;;;;;1.92;1.10;;;;;;;37.86;28.77;98865.19;5053586;28;20193;-95
2022/06/02 12:12:41;;;;;;;1.58;0.77;;;;;;;38.20;27.93;98854.72;5052629;28;20178;-93
2022/06/02 12:15:18;;;;;;;2.42;1.27;;;;;;;38.14;27.97;98856.59;5052579;28;20184;-96
2022/06/02 12:18:07;;;;;;;2.60;1.00;;;;;;;37.88;27.44;98858.34;5052725;28;20180;-95
2022/06/02 12:21:05;;;;;;;2.13;0.90;;;;;;;37.91;28.19;98852.38;5053383;28;20260;-94
2022/06/02 12:23:59;;;;;;;6.28;1.77;;;;;;;38.02;26.91;98858.72;5053702;28;20227;-95
2022/06/02 12:26:46;;;;;;;2.03;1.10;;;;;;;38.08;25.92;98847.53;5052527;28;20170;-95
2022/06/02 12:29:26;;;;;;;2.30;1.08;;;;;;;37.95;27.42;98839.78;5052583;28;20231;-95
2022/06/02 12:32:03;;;;;;;2.40;1.10;;;;;;;37.84;28.17;98848.19;5053483;28;20243;-95
2022/06/02 12:35:03;;;;;;;3.95;1.13;;;;;;;38.05;26.60;98842.56;5052464;28;20181;-95
2022/06/02 12:37:56;;;;;;;2.50;1.25;;;;;;;38.24;28.03;98851.16;5046656;28;20193;-94
2022/06/02 12:40:25;;;;;;;2.80;1.10;;;;;;;38.40;26.79;98839.22;5069159;28;20170;-96
2022/06/02 12:43:20;;;;;;;4.20;1.23;;;;;;;38.46;26.83;98842.81;5053773;28;20561;-96
2022/06/02 12:46:16;;;;;;;2.25;0.88;;;;;;;38.44;26.63;98840.34;5039737;28;20185;-95
2022/06/02 12:49:06;;;;;;;1.85;1.00;;;;;;;38.46;27.02;98840.91;5057515;28;20166;-95
2022/06/02 12:52:06;;;;;;;3.97;1.17;;;;;;;38.82;26.34;98828.16;5057342;28;20185;-95
2022/06/02 12:54:50;;;;;;;2.45;1.40;;;;;;;38.60;28.28;98833.81;5058014;28;20188;-94
2022/06/02 12:57:56;;;;;;;4.80;2.13;;;;;;;37.78;30.01;98839.09;5056581;28;20225;-96
2022/06/02 13:17:32;;;;;;;2.97;1.52;;;;;;;36.36;31.73;98849.63;5057500;28;20323;-93
2022/06/02 13:20:16;;;;;;;4.70;2.10;;;;;;;36.29;30.31;98854.47;5072746;28;20183;-94
2022/06/02 13:23:10;;;;;;;10.85;1.90;;;;;;;36.50;30.41;98852.84;5056815;28;20166;-94
2022/06/02 13:25:47;;;;;;;3.28;1.60;;;;;;;36.30;31.11;98853.38;5057427;28;20178;-94
2022/06/02 13:28:29;;;;;;;3.85;1.95;;;;;;;36.54;29.94;98856.69;5056494;28;20177;-93
2022/06/02 13:31:31;;;;;;;3.17;1.88;;;;;;;36.74;29.85;98848.78;5056396;28;20221;-95
2022/06/02 13:33:56;;;;;;;6.88;1.33;;;;;;;36.73;29.81;98847.09;5056812;28;20591;-94
2022/06/02 13:39:48;;;;;;;4.20;1.77;;;;;;;37.20;29.52;98836.41;5038030;28;20232;-95